CLF2 EGNS-EGAC
Flight info
| Callsign | CLF2 |
|---|---|
| Flight time | 0h 21m |
| Altitude | 3000 |
| Route | IOM DCT NELBO |
| Aircraft | C25C/M-SDE2E3FGHRWXY/LB1 |
Departure
| Time | 2026-04-28 14:41 |
|---|---|
| Airport | Isle of Man Airport (EGNS) |
Arrival
| Time | 2026-04-28 15:02 |
|---|---|
| Airport | George Best Belfast City Airport (EGAC) |
| Time | Latitude | Longitude | Altitude | Speed | Heading |
|---|---|---|---|---|---|
| 2026-04-28 14:35 | 54.08754 | -4.63237 | 30 ft | 0 kts | 229° |
| 2026-04-28 14:36 | 54.08736 | -4.63259 | 129 ft | 8 kts | 206° |
| 2026-04-28 14:36 | 54.08697 | -4.63259 | 130 ft | 0 kts | 144° |
| 2026-04-28 14:37 | 54.08696 | -4.63258 | 144 ft | 2 kts | 141° |
| 2026-04-28 14:37 | 54.08684 | -4.63234 | 209 ft | 0 kts | 127° |
| 2026-04-28 14:37 | 54.08678 | -4.63220 | 335 ft | 6 kts | 128° |
| 2026-04-28 14:38 | 54.08623 | -4.63192 | 484 ft | 11 kts | 203° |
| 2026-04-28 14:38 | 54.08562 | -4.63258 | 118 ft | 15 kts | 222° |
| 2026-04-28 14:38 | 54.08455 | -4.63385 | 35 ft | 19 kts | 201° |
| 2026-04-28 14:38 | 54.08336 | -4.63360 | 35 ft | 15 kts | 165° |
| 2026-04-28 14:39 | 54.08328 | -4.63356 | 35 ft | 0 kts | 164° |
| 2026-04-28 14:39 | 54.08285 | -4.63337 | 34 ft | 17 kts | 167° |
| 2026-04-28 14:40 | 54.08216 | -4.63275 | 34 ft | 2 kts | 84° |
| 2026-04-28 14:40 | 54.08220 | -4.63241 | 34 ft | 20 kts | 79° |
| 2026-04-28 14:41 | 54.08330 | -4.62343 | 39 ft | 134 kts | 78° |
| 2026-04-28 14:41 | 54.08591 | -4.60479 | 496 ft | 182 kts | 75° |
| 2026-04-28 14:41 | 54.08914 | -4.58170 | 1566 ft | 208 kts | 85° |
| 2026-04-28 14:41 | 54.08740 | -4.55852 | 2676 ft | 193 kts | 104° |
| 2026-04-28 14:42 | 54.08309 | -4.53559 | 2723 ft | 214 kts | 104° |
| 2026-04-28 14:42 | 54.07507 | -4.51339 | 2719 ft | 231 kts | 139° |
| 2026-04-28 14:42 | 54.05972 | -4.50546 | 2709 ft | 239 kts | 179° |
| 2026-04-28 14:42 | 54.04488 | -4.51638 | 2926 ft | 235 kts | 221° |
| 2026-04-28 14:43 | 54.03732 | -4.54063 | 2973 ft | 236 kts | 261° |
| 2026-04-28 14:43 | 54.03671 | -4.56853 | 3000 ft | 237 kts | 271° |
| 2026-04-28 14:43 | 54.03694 | -4.59658 | 3011 ft | 238 kts | 273° |
| 2026-04-28 14:43 | 54.03769 | -4.62429 | 3007 ft | 236 kts | 280° |
| 2026-04-28 14:44 | 54.04563 | -4.64788 | 2992 ft | 227 kts | 322° |
| 2026-04-28 14:44 | 54.05810 | -4.66351 | 2995 ft | 225 kts | 326° |
| 2026-04-28 14:44 | 54.06908 | -4.68287 | 3002 ft | 232 kts | 311° |
| 2026-04-28 14:44 | 54.07917 | -4.70421 | 2996 ft | 230 kts | 313° |
| 2026-04-28 14:45 | 54.08960 | -4.72482 | 2989 ft | 232 kts | 313° |
| 2026-04-28 14:45 | 54.10026 | -4.74543 | 3002 ft | 233 kts | 314° |
| 2026-04-28 14:45 | 54.11104 | -4.76617 | 2992 ft | 235 kts | 314° |
| 2026-04-28 14:45 | 54.12176 | -4.78713 | 2999 ft | 233 kts | 313° |
| 2026-04-28 14:46 | 54.13244 | -4.80792 | 2998 ft | 232 kts | 314° |
| 2026-04-28 14:46 | 54.14303 | -4.82859 | 2997 ft | 232 kts | 313° |
| 2026-04-28 14:46 | 54.15384 | -4.84960 | 3003 ft | 238 kts | 313° |
| 2026-04-28 14:46 | 54.16487 | -4.87110 | 3000 ft | 242 kts | 313° |
| 2026-04-28 14:47 | 54.17600 | -4.89291 | 3085 ft | 242 kts | 313° |
| 2026-04-28 14:47 | 54.18694 | -4.91433 | 3409 ft | 246 kts | 313° |
| 2026-04-28 14:47 | 54.19796 | -4.93585 | 4635 ft | 240 kts | 314° |
| 2026-04-28 14:47 | 54.20909 | -4.95773 | 5345 ft | 248 kts | 314° |
| 2026-04-28 14:48 | 54.22062 | -4.98024 | 5828 ft | 255 kts | 314° |
| 2026-04-28 14:48 | 54.23245 | -5.00351 | 5982 ft | 260 kts | 314° |
| 2026-04-28 14:48 | 54.24447 | -5.02705 | 5989 ft | 264 kts | 314° |
| 2026-04-28 14:48 | 54.25661 | -5.05097 | 5995 ft | 268 kts | 314° |
| 2026-04-28 14:49 | 54.26892 | -5.07517 | 6005 ft | 270 kts | 314° |
| 2026-04-28 14:49 | 54.28128 | -5.09953 | 6002 ft | 272 kts | 314° |
| 2026-04-28 14:49 | 54.29372 | -5.12411 | 5999 ft | 273 kts | 314° |
| 2026-04-28 14:49 | 54.30608 | -5.14845 | 6006 ft | 274 kts | 314° |
| 2026-04-28 14:50 | 54.31859 | -5.17327 | 6008 ft | 275 kts | 314° |
| 2026-04-28 14:50 | 54.33120 | -5.19808 | 6005 ft | 276 kts | 314° |
| 2026-04-28 14:50 | 54.34377 | -5.22310 | 6005 ft | 276 kts | 314° |
| 2026-04-28 14:50 | 54.35641 | -5.24801 | 6005 ft | 277 kts | 314° |
| 2026-04-28 14:51 | 54.36900 | -5.27313 | 6005 ft | 277 kts | 314° |
| 2026-04-28 14:51 | 54.38164 | -5.29813 | 6015 ft | 277 kts | 314° |
| 2026-04-28 14:51 | 54.39406 | -5.32290 | 6010 ft | 277 kts | 314° |
| 2026-04-28 14:51 | 54.40671 | -5.34800 | 6005 ft | 278 kts | 314° |
| 2026-04-28 14:52 | 54.41929 | -5.37313 | 6009 ft | 278 kts | 314° |
| 2026-04-28 14:52 | 54.43193 | -5.39830 | 6008 ft | 278 kts | 313° |
| 2026-04-28 14:52 | 54.44458 | -5.42357 | 5910 ft | 281 kts | 314° |
| 2026-04-28 14:52 | 54.45735 | -5.44904 | 5593 ft | 272 kts | 313° |
| 2026-04-28 14:53 | 54.46922 | -5.47298 | 5257 ft | 254 kts | 314° |
| 2026-04-28 14:53 | 54.48029 | -5.49506 | 4929 ft | 239 kts | 314° |
| 2026-04-28 14:53 | 54.49107 | -5.51671 | 4619 ft | 237 kts | 312° |
| 2026-04-28 14:53 | 54.49850 | -5.54177 | 4301 ft | 240 kts | 282° |
| 2026-04-28 14:54 | 54.49752 | -5.57034 | 3981 ft | 239 kts | 256° |
| 2026-04-28 14:54 | 54.49298 | -5.59775 | 3675 ft | 237 kts | 253° |
| 2026-04-28 14:54 | 54.48807 | -5.62468 | 3362 ft | 235 kts | 253° |
| 2026-04-28 14:54 | 54.48343 | -5.65155 | 3048 ft | 234 kts | 254° |
| 2026-04-28 14:55 | 54.47853 | -5.67828 | 2845 ft | 233 kts | 245° |
| 2026-04-28 14:55 | 54.47121 | -5.70253 | 2802 ft | 224 kts | 243° |
| 2026-04-28 14:55 | 54.46465 | -5.72633 | 2811 ft | 217 kts | 245° |
| 2026-04-28 14:55 | 54.45822 | -5.74875 | 2789 ft | 208 kts | 243° |
| 2026-04-28 14:56 | 54.45195 | -5.77091 | 2810 ft | 206 kts | 247° |
| 2026-04-28 14:56 | 54.44947 | -5.79618 | 2833 ft | 222 kts | 266° |
| 2026-04-28 14:56 | 54.44797 | -5.82322 | 2817 ft | 231 kts | 265° |
| 2026-04-28 14:56 | 54.44616 | -5.85090 | 2814 ft | 233 kts | 264° |
| 2026-04-28 14:57 | 54.44448 | -5.87861 | 2802 ft | 232 kts | 269° |
| 2026-04-28 14:57 | 54.44585 | -5.89659 | 2802 ft | 228 kts | 285° |
| 2026-04-28 14:57 | 54.45060 | -5.93060 | 2812 ft | 211 kts | 285° |
| 2026-04-28 14:57 | 54.45390 | -5.95465 | 2807 ft | 202 kts | 285° |
| 2026-04-28 14:58 | 54.45701 | -5.97810 | 2813 ft | 200 kts | 285° |
| 2026-04-28 14:58 | 54.46193 | -5.99993 | 2785 ft | 194 kts | 309° |
| 2026-04-28 14:58 | 54.47269 | -6.01191 | 2769 ft | 183 kts | 349° |
| 2026-04-28 14:58 | 54.48525 | -6.01648 | 2629 ft | 187 kts | 353° |
| 2026-04-28 14:59 | 54.49740 | -6.01445 | 2454 ft | 168 kts | 31° |
| 2026-04-28 14:59 | 54.50709 | -6.00438 | 2297 ft | 155 kts | 35° |
| 2026-04-28 14:59 | 54.51596 | -5.99421 | 2126 ft | 155 kts | 39° |
| 2026-04-28 14:59 | 54.52458 | -5.98382 | 2032 ft | 144 kts | 37° |
| 2026-04-28 15:00 | 54.53271 | -5.97440 | 1948 ft | 146 kts | 38° |
| 2026-04-28 15:00 | 54.54128 | -5.96411 | 1758 ft | 153 kts | 38° |
| 2026-04-28 15:00 | 54.55021 | -5.95341 | 1549 ft | 158 kts | 38° |
| 2026-04-28 15:00 | 54.55938 | -5.94250 | 1346 ft | 164 kts | 38° |
| 2026-04-28 15:01 | 54.56882 | -5.93121 | 1102 ft | 164 kts | 36° |
| 2026-04-28 15:01 | 54.57824 | -5.92009 | 861 ft | 161 kts | 37° |
| 2026-04-28 15:01 | 54.58711 | -5.90945 | 697 ft | 137 kts | 37° |
| 2026-04-28 15:01 | 54.59395 | -5.90142 | 581 ft | 112 kts | 36° |
| 2026-04-28 15:02 | 54.60032 | -5.89401 | 380 ft | 113 kts | 40° |
| 2026-04-28 15:02 | 54.60658 | -5.88631 | 193 ft | 109 kts | 38° |
| 2026-04-28 15:02 | 54.61255 | -5.87919 | 25 ft | 94 kts | 38° |
| 2026-04-28 15:02 | 54.61685 | -5.87387 | 16 ft | 47 kts | 35° |
| 2026-04-28 15:03 | 54.61820 | -5.87178 | 15 ft | 17 kts | 90° |
| 2026-04-28 15:03 | 54.61746 | -5.86999 | 15 ft | 14 kts | 171° |
| 2026-04-28 15:03 | 54.61659 | -5.86980 | 14 ft | 11 kts | 127° |
| 2026-04-28 15:03 | 54.61654 | -5.86968 | 14 ft | 0 kts | 126° |